createdAt,value
2023-05-24T03:02:34.067Z,12.50
2023-05-24T03:05:01.456Z,12.50
2023-05-24T03:07:28.720Z,12.50
2023-05-24T03:09:56.101Z,12.40
2023-05-24T03:12:23.369Z,12.40
2023-05-24T03:14:50.633Z,12.40
2023-05-24T03:17:18.146Z,12.50
2023-05-24T03:19:45.430Z,12.40
2023-05-24T03:22:12.659Z,12.50
2023-05-24T03:24:40.173Z,12.50
2023-05-24T03:27:07.438Z,12.50
2023-05-24T03:29:34.682Z,12.60
2023-05-24T03:32:01.947Z,12.60
2023-05-24T03:34:30.212Z,12.70
2023-05-24T03:36:57.462Z,12.70
2023-05-24T03:39:24.646Z,12.80
2023-05-24T03:41:51.885Z,12.80
2023-05-24T03:44:19.245Z,12.80
2023-05-24T03:46:46.466Z,12.70
2023-05-24T03:49:13.682Z,12.80
2023-05-24T03:51:40.913Z,12.90
2023-05-24T03:54:08.151Z,12.70
2023-05-24T03:56:35.455Z,12.70
2023-05-24T03:59:04.014Z,12.70
2023-05-24T04:01:34.674Z,12.60
2023-05-24T04:04:05.567Z,12.60
2023-05-24T04:06:32.838Z,12.50
2023-05-24T04:09:01.994Z,12.50
2023-05-24T04:11:29.311Z,12.60
2023-05-24T04:14:00.361Z,12.60
2023-05-24T04:16:28.718Z,12.50
2023-05-24T04:18:56.655Z,12.50
2023-05-24T04:21:24.247Z,12.70
2023-05-24T04:23:51.455Z,12.70
2023-05-24T04:26:18.921Z,12.80
2023-05-24T04:28:46.772Z,12.80
2023-05-24T04:31:15.737Z,12.80
2023-05-24T04:33:43.068Z,12.80
2023-05-24T04:36:11.555Z,12.80
2023-05-24T04:38:40.937Z,12.80
2023-05-24T04:41:08.350Z,12.90
2023-05-24T04:43:35.670Z,12.90
2023-05-24T04:46:03.187Z,12.80
2023-05-24T04:48:30.463Z,12.80
2023-05-24T04:50:58.436Z,12.70
2023-05-24T04:53:25.792Z,12.70
2023-05-24T04:55:53.691Z,12.70
2023-05-24T04:58:20.919Z,12.60
2023-05-24T05:00:48.344Z,12.60
2023-05-24T05:03:15.946Z,12.60
2023-05-24T05:05:43.326Z,12.40
2023-05-24T05:08:10.589Z,12.40
2023-05-24T05:10:37.849Z,12.30
2023-05-24T05:13:05.087Z,12.20
2023-05-24T05:15:32.727Z,12.20
2023-05-24T05:18:00.320Z,12.20
2023-05-24T05:20:27.825Z,12.30
2023-05-24T05:22:55.161Z,12.20
2023-05-24T05:25:22.767Z,12.20
2023-05-24T05:27:50.011Z,12.10
2023-05-24T05:30:17.509Z,12.20
2023-05-24T05:32:44.886Z,12.20
2023-05-24T05:35:12.236Z,12.20
2023-05-24T05:37:39.433Z,12.30
2023-05-24T05:40:07.321Z,12.30
2023-05-24T05:42:34.531Z,12.20
2023-05-24T05:45:01.817Z,12.30
2023-05-24T05:47:29.067Z,12.20
2023-05-24T05:49:56.314Z,12.20
2023-05-24T05:52:23.961Z,12.10
2023-05-24T05:54:51.151Z,12.20
2023-05-24T05:57:24.017Z,12.20
2023-05-24T05:59:51.467Z,12.20
2023-05-24T06:02:19.149Z,12.10
2023-05-24T06:04:47.239Z,12.10
2023-05-24T06:07:14.571Z,12.20
2023-05-24T06:09:42.015Z,12.20
2023-05-24T06:12:09.321Z,12.20
2023-05-24T06:14:38.468Z,12.20
2023-05-24T06:17:06.685Z,12.20
2023-05-24T06:19:33.974Z,12.20
2023-05-24T06:22:01.734Z,12.20
2023-05-24T06:24:28.970Z,12.10
2023-05-24T06:26:56.256Z,12.10
2023-05-24T06:29:25.254Z,12.10
2023-05-24T06:31:52.774Z,12.10
2023-05-24T06:34:23.616Z,12.00
2023-05-24T06:36:52.862Z,12.10
2023-05-24T06:39:20.182Z,12.00
2023-05-24T06:41:47.634Z,12.00
2023-05-24T06:44:16.332Z,12.00
2023-05-24T06:46:43.704Z,12.00
2023-05-24T06:49:12.025Z,12.00
2023-05-24T06:51:39.368Z,12.00
2023-05-24T06:54:06.786Z,12.10
2023-05-24T06:56:34.033Z,12.10
2023-05-24T06:59:01.324Z,12.10
2023-05-24T07:01:29.481Z,12.20
2023-05-24T07:03:56.946Z,12.20
2023-05-24T07:06:25.096Z,12.20
2023-05-24T07:08:52.279Z,12.10
2023-05-24T07:11:19.569Z,12.10
2023-05-24T07:13:46.885Z,12.10
2023-05-24T07:16:14.130Z,12.00
2023-05-24T07:18:41.929Z,12.00
2023-05-24T07:21:09.286Z,12.10
2023-05-24T07:23:37.311Z,12.10
2023-05-24T07:26:05.123Z,12.10
2023-05-24T07:28:32.894Z,12.00
2023-05-24T07:31:00.395Z,12.10
2023-05-24T07:33:28.163Z,12.10
2023-05-24T07:35:55.435Z,12.10
2023-05-24T07:38:22.704Z,12.20
2023-05-24T07:40:49.988Z,12.10
2023-05-24T07:43:17.220Z,12.10
2023-05-24T07:45:44.671Z,12.20
2023-05-24T07:48:12.151Z,12.20
2023-05-24T07:50:39.634Z,12.40
2023-05-24T07:53:07.276Z,12.30
2023-05-24T07:55:34.509Z,12.40
2023-05-24T07:58:01.739Z,12.40
2023-05-24T08:00:29.948Z,12.50
2023-05-24T08:02:57.424Z,12.50
2023-05-24T08:05:24.790Z,12.40
2023-05-24T08:07:53.395Z,12.40
2023-05-24T08:10:20.819Z,12.20
2023-05-24T08:12:50.100Z,12.30
2023-05-24T08:15:17.412Z,12.30
2023-05-24T08:17:44.686Z,12.20
2023-05-24T08:20:15.422Z,12.20
2023-05-24T08:22:42.972Z,12.10
2023-05-24T08:25:11.615Z,12.10
2023-05-24T08:27:38.779Z,12.10
2023-05-24T08:30:07.292Z,12.00
2023-05-24T08:32:34.823Z,12.00
2023-05-24T08:35:18.308Z,11.90
2023-05-24T08:37:48.063Z,12.00
2023-05-24T08:40:15.601Z,12.00
2023-05-24T08:42:42.948Z,12.10
2023-05-24T08:45:14.675Z,12.10
2023-05-24T08:47:42.523Z,12.10
2023-05-24T08:50:10.753Z,12.10
2023-05-24T08:52:39.731Z,12.20
2023-05-24T08:55:07.688Z,12.10
2023-05-24T08:57:39.239Z,11.90
2023-05-24T09:00:11.335Z,12.00
2023-05-24T09:02:40.287Z,11.90
2023-05-24T09:05:11.101Z,11.90
2023-05-24T09:07:41.383Z,12.00
2023-05-24T09:10:10.004Z,11.90
2023-05-24T09:12:39.613Z,11.90
2023-05-24T09:15:08.743Z,11.90
2023-05-24T09:17:37.366Z,11.70
2023-05-24T09:20:11.024Z,11.80
2023-05-24T09:22:42.107Z,11.80
2023-05-24T09:25:12.733Z,11.80
2023-05-24T09:27:40.141Z,11.80
2023-05-24T09:30:12.463Z,11.80
2023-05-24T09:32:41.125Z,11.80
2023-05-24T09:35:10.347Z,11.80
2023-05-24T09:37:41.382Z,11.80
2023-05-24T09:40:19.057Z,11.90
2023-05-24T09:42:46.734Z,11.90
2023-05-24T09:45:14.131Z,11.70
2023-05-24T09:47:42.877Z,11.70
2023-05-24T09:50:17.513Z,11.70
2023-05-24T09:52:45.598Z,11.70
2023-05-24T09:55:17.294Z,11.70
2023-05-24T09:57:45.734Z,11.80
2023-05-24T10:00:16.739Z,11.80
2023-05-24T10:02:53.000Z,11.90
2023-05-24T10:05:21.705Z,11.90
2023-05-24T10:07:49.130Z,11.90
2023-05-24T10:10:16.684Z,11.80
2023-05-24T10:12:46.850Z,11.80
2023-05-24T10:15:14.376Z,11.60
2023-05-24T10:17:41.711Z,11.70
2023-05-24T10:20:12.363Z,11.70
2023-05-24T10:22:51.766Z,11.80
2023-05-24T10:25:25.609Z,11.90
2023-05-24T10:27:57.652Z,11.90
2023-05-24T10:30:37.761Z,12.10
2023-05-24T10:33:07.989Z,12.10
2023-05-24T10:35:38.139Z,11.80
2023-05-24T10:38:08.578Z,11.80
2023-05-24T10:40:40.853Z,11.90
2023-05-24T10:43:08.682Z,11.90
2023-05-24T10:45:40.860Z,11.80
2023-05-24T10:48:14.180Z,11.90
2023-05-24T10:50:43.206Z,11.80
2023-05-24T10:53:20.759Z,11.70
2023-05-24T10:56:01.152Z,11.70
2023-05-24T10:58:34.192Z,11.70
2023-05-24T11:01:01.770Z,11.80
2023-05-24T11:03:35.435Z,11.80
2023-05-24T11:06:03.015Z,11.90
2023-05-24T11:08:33.142Z,11.90
2023-05-24T11:11:28.615Z,12.10
2023-05-24T11:14:01.370Z,12.10
2023-05-24T11:16:40.181Z,12.20
2023-05-24T11:19:19.603Z,12.20
2023-05-24T11:21:51.650Z,12.30
2023-05-24T11:24:20.233Z,12.40
2023-05-24T11:26:47.552Z,12.40
2023-05-24T11:29:22.178Z,12.60
2023-05-24T11:31:50.707Z,12.80
2023-05-24T11:34:18.877Z,13.00
2023-05-24T11:36:47.425Z,13.30
2023-05-24T11:39:14.920Z,13.80
2023-05-24T11:41:42.246Z,13.80
2023-05-24T11:44:11.563Z,13.90
2023-05-24T11:46:39.792Z,13.70
2023-05-24T11:49:07.265Z,13.50
2023-05-24T11:51:35.932Z,12.80
2023-05-24T11:54:03.243Z,12.80
2023-05-24T11:56:33.858Z,12.60
2023-05-24T11:59:09.486Z,12.70
2023-05-24T12:01:38.066Z,12.60
2023-05-24T12:04:09.817Z,12.60
2023-05-24T12:06:42.397Z,12.60
2023-05-24T12:09:13.379Z,12.60
2023-05-24T12:11:46.264Z,12.70
2023-05-24T12:14:15.123Z,12.60
2023-05-24T12:16:43.763Z,12.40
2023-05-24T12:21:58.299Z,12.40
2023-05-24T12:24:27.282Z,12.40
2023-05-24T12:27:01.714Z,12.40
2023-05-24T12:29:34.924Z,12.40
2023-05-24T12:32:03.044Z,12.40
2023-05-24T12:34:30.398Z,12.40
2023-05-24T12:36:57.843Z,12.40
2023-05-24T12:39:31.383Z,12.50
2023-05-24T12:42:01.784Z,12.50
2023-05-24T12:44:37.653Z,12.40
2023-05-24T12:47:07.459Z,12.50
2023-05-24T12:49:35.033Z,12.60
2023-05-24T12:52:02.466Z,12.60
2023-05-24T12:54:30.608Z,12.60
2023-05-24T12:57:00.278Z,12.60
2023-05-24T12:59:29.079Z,12.60
2023-05-24T13:01:56.679Z,12.60
2023-05-24T13:04:27.002Z,12.70
2023-05-24T13:06:54.546Z,12.70
2023-05-24T13:09:23.314Z,12.90
2023-05-24T13:11:51.360Z,13.20
2023-05-24T13:14:20.161Z,13.30
2023-05-24T13:16:48.417Z,13.60
2023-05-24T13:19:16.715Z,13.60
2023-05-24T13:21:44.166Z,13.60
2023-05-24T13:24:14.693Z,13.50
2023-05-24T13:26:42.055Z,13.40
2023-05-24T13:31:41.435Z,13.30
2023-05-24T13:34:10.905Z,13.10
2023-05-24T13:36:38.416Z,13.10
2023-05-24T13:41:40.705Z,13.00
2023-05-24T13:44:08.664Z,13.00
2023-05-24T13:46:36.821Z,13.00
2023-05-24T13:49:05.028Z,13.00
2023-05-24T13:51:33.011Z,13.10
2023-05-24T13:54:01.180Z,13.10
2023-05-24T13:56:32.950Z,13.30
2023-05-24T13:59:04.630Z,13.30
2023-05-24T14:01:33.115Z,13.20
2023-05-24T14:04:02.049Z,13.20
2023-05-24T14:06:29.370Z,13.30
2023-05-24T14:08:56.887Z,13.50
2023-05-24T14:16:23.177Z,13.90
2023-05-24T14:18:51.644Z,13.90
2023-05-24T14:21:21.631Z,13.70
2023-05-24T14:23:49.887Z,13.80
2023-05-24T14:26:17.786Z,13.60
2023-05-24T14:28:44.992Z,13.80
2023-05-24T14:31:12.215Z,14.10
2023-05-24T14:33:39.434Z,14.20
2023-05-24T14:36:07.263Z,14.40
2023-05-24T14:38:34.486Z,14.50
2023-05-24T14:41:02.100Z,14.30
2023-05-24T14:43:29.387Z,14.10
2023-05-24T14:45:56.721Z,14.20
2023-05-24T14:48:24.186Z,14.60
2023-05-24T14:50:51.592Z,14.60
2023-05-24T14:53:18.832Z,14.60
2023-05-24T14:55:46.212Z,14.60
2023-05-24T14:58:13.723Z,14.80
2023-05-24T15:00:42.808Z,14.80
2023-05-24T15:03:12.542Z,14.90
2023-05-24T15:05:41.591Z,15.00
2023-05-24T15:08:10.883Z,15.10
2023-05-24T15:10:44.485Z,15.40
2023-05-24T15:13:13.280Z,15.40
2023-05-24T15:15:41.981Z,15.30
2023-05-24T15:18:09.563Z,15.20
2023-05-24T15:20:37.059Z,15.00
2023-05-24T15:23:04.374Z,15.10
2023-05-24T15:25:31.618Z,15.10
2023-05-24T15:27:59.178Z,15.20
2023-05-24T15:30:26.512Z,15.20
2023-05-24T15:32:53.722Z,15.00
2023-05-24T15:35:21.627Z,15.00
2023-05-24T15:37:48.894Z,15.10
2023-05-24T15:40:16.258Z,15.00
2023-05-24T15:42:43.765Z,15.00
2023-05-24T15:45:11.546Z,15.10
2023-05-24T15:47:40.309Z,15.20
2023-05-24T15:50:09.068Z,15.20
2023-05-24T15:52:36.698Z,15.00
2023-05-24T15:55:04.472Z,15.10
2023-05-24T15:57:31.787Z,15.00
2023-05-24T15:59:59.000Z,15.00
2023-05-24T16:02:26.440Z,15.10
2023-05-24T16:04:54.283Z,15.30
2023-05-24T16:07:21.618Z,15.50
2023-05-24T16:09:50.860Z,15.40
2023-05-24T16:12:18.556Z,15.30
2023-05-24T16:14:46.501Z,15.10
2023-05-24T16:17:15.231Z,15.20
2023-05-24T16:19:42.866Z,15.40
2023-05-24T16:22:10.138Z,15.40
2023-05-24T16:24:37.372Z,15.30
2023-05-24T16:27:04.734Z,15.30
2023-05-24T16:29:32.032Z,15.10
2023-05-24T16:31:59.309Z,15.10
2023-05-24T16:34:26.574Z,15.00
2023-05-24T16:36:53.821Z,15.10
2023-05-24T16:39:21.071Z,15.00
2023-05-24T16:41:48.289Z,15.10
2023-05-24T16:44:18.509Z,15.10
2023-05-24T16:46:46.309Z,15.20
2023-05-24T16:49:13.852Z,15.30
2023-05-24T16:51:41.124Z,15.30
2023-05-24T16:54:09.126Z,15.30
2023-05-24T16:56:37.934Z,15.30
2023-05-24T16:59:05.700Z,15.20
2023-05-24T17:01:33.218Z,15.20
2023-05-24T17:04:00.680Z,14.90
2023-05-24T17:06:28.282Z,14.80
2023-05-24T17:08:55.575Z,14.70
2023-05-24T17:11:23.290Z,14.60
2023-05-24T17:13:51.742Z,14.70
2023-05-24T17:16:19.238Z,14.60
2023-05-24T17:18:46.590Z,14.50
2023-05-24T17:21:13.942Z,14.50
2023-05-24T17:23:41.475Z,14.30
2023-05-24T17:26:08.801Z,14.30
2023-05-24T17:28:36.322Z,14.30
2023-05-24T17:31:04.091Z,14.30
2023-05-24T17:33:32.138Z,14.30
2023-05-24T17:36:06.344Z,14.20
2023-05-24T17:38:37.437Z,14.00
2023-05-24T17:41:07.684Z,13.90
2023-05-24T17:43:36.701Z,13.40
2023-05-24T17:46:06.916Z,13.00
2023-05-24T17:48:36.929Z,12.70
2023-05-24T17:51:06.616Z,12.50
2023-05-24T17:53:35.386Z,12.50
2023-05-24T17:56:04.955Z,12.50
2023-05-24T17:58:36.049Z,12.50
2023-05-24T18:01:05.410Z,12.40
2023-05-24T18:03:33.685Z,12.40
2023-05-24T18:06:01.349Z,12.30
2023-05-24T18:08:28.614Z,12.20
2023-05-24T18:10:56.082Z,12.10
2023-05-24T18:13:23.273Z,12.10
2023-05-24T18:15:50.886Z,12.10
2023-05-24T18:18:18.164Z,11.90
2023-05-24T18:20:45.542Z,11.70
2023-05-24T18:23:12.876Z,11.70
2023-05-24T18:25:40.183Z,11.60
2023-05-24T18:28:07.543Z,11.60
2023-05-24T18:30:34.757Z,11.50
2023-05-24T18:33:07.036Z,11.50
2023-05-24T18:35:35.674Z,11.40
2023-05-24T18:38:03.930Z,11.40
2023-05-24T18:40:31.362Z,11.40
2023-05-24T18:42:58.565Z,11.30
2023-05-24T18:45:25.789Z,11.30
2023-05-24T18:47:54.203Z,11.30
2023-05-24T18:50:23.437Z,11.30
2023-05-24T18:52:50.866Z,11.30
2023-05-24T18:55:18.302Z,11.30
2023-05-24T18:57:45.631Z,11.20
2023-05-24T19:00:13.343Z,11.30
2023-05-24T19:02:40.786Z,11.20
2023-05-24T19:05:08.824Z,11.10
2023-05-24T19:07:36.802Z,11.10
2023-05-24T19:10:04.475Z,11.10
2023-05-24T19:12:31.855Z,11.10
2023-05-24T19:14:59.850Z,11.00
2023-05-24T19:17:27.251Z,11.00
2023-05-24T19:19:54.669Z,11.00
2023-05-24T19:22:22.047Z,11.00
2023-05-24T19:24:49.313Z,10.90
2023-05-24T19:27:16.522Z,10.90
2023-05-24T19:29:43.759Z,11.00
2023-05-24T19:32:11.961Z,10.90
2023-05-24T19:34:42.322Z,10.90
2023-05-24T19:37:09.962Z,10.90
2023-05-24T19:39:37.740Z,10.90
2023-05-24T19:42:06.561Z,10.90
2023-05-24T19:44:33.873Z,10.90
2023-05-24T19:47:01.111Z,10.80
2023-05-24T19:49:28.354Z,10.90
2023-05-24T19:51:55.547Z,11.00
2023-05-24T19:54:23.105Z,10.90
2023-05-24T19:56:51.904Z,10.80
2023-05-24T19:59:21.723Z,10.80
2023-05-24T20:01:49.182Z,10.80
2023-05-24T20:04:16.445Z,10.80
2023-05-24T20:06:43.805Z,10.80
2023-05-24T20:09:11.387Z,10.70
2023-05-24T20:11:38.676Z,10.80
2023-05-24T20:14:05.880Z,10.80
2023-05-24T20:16:33.258Z,10.70
2023-05-24T20:19:00.517Z,10.80
2023-05-24T20:21:28.446Z,10.80
2023-05-24T20:23:58.821Z,10.80
2023-05-24T20:26:26.494Z,10.70
2023-05-24T20:28:53.937Z,10.70
2023-05-24T20:31:21.197Z,10.70
2023-05-24T20:33:49.769Z,10.80
2023-05-24T20:36:17.215Z,10.70
2023-05-24T20:38:44.487Z,10.80
2023-05-24T20:41:12.144Z,10.80
2023-05-24T20:43:39.355Z,10.90
2023-05-24T20:46:06.738Z,10.90
2023-05-24T20:48:34.373Z,10.80
2023-05-24T20:51:01.755Z,10.80
2023-05-24T20:53:29.081Z,10.80
2023-05-24T20:55:57.171Z,10.80
2023-05-24T20:58:24.367Z,10.90
